Nearby METAR Reports

 

KMTN - Baltimore/Martin, Maryland, USA
Distance from station: SSE 8mi, 13km
Updated: Sat, 30-May-2015 1:57am EDT
Mostly cloudy
Mostly cloudy
 Wind from SE
Wind: SE 6 mph , 9 km/h
Temperature: 72°F , 22°C
Dew Point: 70°F , 21°C
Humidity: 94%
Barometer: 30.20 inHg , 1022.7 hPa
Clouds: Mostly cloudy
Visibility: 10 miles , 16 km
Cloud details: Mostly cloudy 1200 ft
Mostly cloudy 5000 ft
2015/05/30 05:57 KMTN 300557Z AUTO 14005KT 10SM BKN012 BKN050 22/21 A3020 RMK AO2
KDMH - Baltimore/Dwntwn, Maryland, USA
Distance from station: SW 12mi, 19km
Updated: Sat, 30-May-2015 1:54am EDT

 
Temperature: 73°F , 23°C
Dew Point: 66°F , 19°C
Humidity: 78%
Barometer: 30.19 inHg , 1022.4 hPa
2015/05/30 05:54 KDMH 300554Z AUTO 23/19 A3019 RMK AO1 SLP222 T02330189 10261 20233 56008
 
KBWI - Balto/Wash Intl, Maryland, USA
Distance from station: SSW 20mi, 33km
Updated: Sat, 30-May-2015 1:54am EDT
Mostly cloudy
Mostly cloudy
 Wind from varies
Wind: varies 3 mph , 6 km/h
Temperature: 72°F , 22°C
Dew Point: 66°F , 19°C
Humidity: 83%
Barometer: 30.18 inHg , 1022 hPa
Clouds: Mostly cloudy
Visibility: 10 miles , 16 km
Cloud details: Mostly cloudy 5500 ft
Mostly cloudy 25000 ft
2015/05/30 05:54 KBWI 300554Z VRB03KT 10SM BKN055 BKN250 22/19 A3018 RMK AO2 SLP219 T02170189 10256 20217 56007
KDMW - Carroll Cnty, Maryland, USA
Distance from station: WNW 30mi, 48km
Updated: Sat, 30-May-2015 1:55am EDT
Mostly cloudy
Mostly cloudy
 Wind from S
Wind: S 3 mph , 6 km/h
Temperature: 70°F , 21°C
Dew Point: 64°F , 18°C
Humidity: 83%
Barometer: 30.20 inHg , 1022.7 hPa
Clouds: Mostly cloudy
Visibility: 10 miles , 16 km
Cloud details: Partly cloudy 3300 ft
Mostly cloudy 4300 ft
2015/05/30 05:55 KDMW 300555Z AUTO 18003KT 10SM SCT033 BKN043 21/18 A3020 RMK AO2
 
KNAK - Annapolis/Naval, Maryland, USA
Distance from station: S 30mi, 48km
Updated: Sat, 30-May-2015 1:54am EDT
Partly cloudy
Partly cloudy
 Wind from S
Wind: S 12 mph , 19 km/h
Temperature: 72°F , 22°C
Dew Point: 66°F , 19°C
Humidity: 83%
Barometer: 30.18 inHg , 1022 hPa
Clouds: Partly cloudy
Visibility: 10 miles , 16 km
Cloud details: Partly cloudy 6000 ft
2015/05/30 05:54 KNAK 300554Z AUTO 18010KT 10SM SCT060 22/19 A3018 RMK AO2 SLP220 T02170189 10244 20217 56010
KW29 - Stevensville, Maryland, USA
Distance from station: SSE 31mi, 50km
Updated: Sat, 30-May-2015 1:56am EDT

 Wind from SSE
Wind: SSE 10 mph , 17 km/h
Barometer: 30.19 inHg , 1022.4 hPa
Visibility: 10 miles , 16 km
2015/05/30 05:56 KW29 300556Z AUTO 16009KT 10SM A3019 RMK AO1
 
KCGS - College Park, Maryland, USA
Distance from station: SW 38mi, 61km
Updated: Sat, 30-May-2015 1:55am EDT
Mostly cloudy
Mostly cloudy
 Wind from S
Wind: S 5 mph , 7 km/h
Temperature: 72°F , 22°C
Dew Point: 66°F , 19°C
Humidity: 83%
Barometer: 30.19 inHg , 1022.4 hPa
Clouds: Mostly cloudy
Visibility: 10 miles , 16 km
Cloud details: Mostly cloudy 6000 ft
2015/05/30 05:55 KCGS 300555Z AUTO 17004KT 10SM BKN060 22/19 A3019 RMK AO1
KGAI - Gaithersburg, Maryland, USA
Distance from station: WSW 40mi, 65km
Updated: Sat, 30-May-2015 1:55am EDT
Clear
Clear
 Wind from SE
Wind: SE 7 mph , 11 km/h
Temperature: 70°F , 21°C
Dew Point: 63°F , 17°C
Humidity: 78%
Barometer: 30.23 inHg , 1023.7 hPa
Clouds: Clear
Visibility: 10 miles , 16 km
2015/05/30 05:55 KGAI 300555Z AUTO 13006KT 10SM CLR 21/17 A3023 RMK AO1 10250 20210 57007
 
KTHV - York, Pennsylvania, USA
Distance from station: NNW 40mi, 65km
Updated: Sat, 30-May-2015 1:53am EDT
Clear
Clear
 Wind from S
Wind: S 5 mph , 7 km/h
Temperature: 72°F , 22°C
Dew Point: 64°F , 18°C
Humidity: 78%
Barometer: 30.18 inHg , 1022 hPa
Clouds: Clear
Visibility: 10 miles , 16 km
2015/05/30 05:53 KTHV 300553Z AUTO 17004KT 10SM CLR 22/18 A3018 RMK AO2 SLP217 T02170178 10256 20217 56007
KFDK - Frederick, Maryland, USA
Distance from station: W 47mi, 75km
Updated: Sat, 30-May-2015 1:55am EDT
Overcast
Overcast
 Wind from SSE
Wind: SSE 3 mph , 6 km/h
Temperature: 70°F , 21°C
Dew Point: 68°F , 20°C
Humidity: 94%
Barometer: 30.20 inHg , 1022.7 hPa
Clouds: Overcast
Visibility: 10 miles , 16 km
Cloud details: Mostly cloudy 4300 ft
Overcast 4900 ft
2015/05/30 05:55 KFDK 300555Z AUTO 16003KT 10SM BKN043 OVC049 21/20 A3020 RMK AO2
 
KESN - Easton/Newnam, Maryland, USA
Distance from station: SSE 48mi, 78km
Updated: Sat, 30-May-2015 2:14am EDT
Clear
Clear
 Wind from S
Wind: S 3 mph , 6 km/h
Temperature: 70°F , 21°C
Dew Point: 70°F , 21°C
Humidity: 100%
Barometer: 30.24 inHg , 1024 hPa
Clouds: Clear
Visibility: 10 miles , 16 km
2015/05/30 06:14 KESN 300614Z AUTO 18003KT 10SM CLR 21/21 A3024 RMK AO2 T02050205
KDCA - Washington/Natl, Washington D.c., USA
Distance from station: SW 49mi, 79km
Updated: Sat, 30-May-2015 1:52am EDT
Overcast
Overcast
 Wind from S
Wind: S 9 mph , 15 km/h
Temperature: 73°F , 23°C
Dew Point: 66°F , 19°C
Humidity: 78%
Barometer: 30.19 inHg , 1022.4 hPa
Clouds: Overcast
Visibility: 10 miles , 16 km
Cloud details: Overcast 7000 ft
2015/05/30 05:52 KDCA 300552Z 17008KT 10SM OVC070 23/19 A3019 RMK AO2 SLP222 T02330189 10272 20233 56006
 
KLNS - Lancaster, Pennsylvania, USA
Distance from station: N 49mi, 79km
Updated: Sat, 30-May-2015 1:53am EDT
Clear
Clear
 Wind from ESE
Wind: ESE 5 mph , 7 km/h
Temperature: 68°F , 20°C
Dew Point: 66°F , 19°C
Humidity: 94%
Barometer: 30.19 inHg , 1022.4 hPa
Clouds: Clear
Visibility: 7 miles , 11 km
2015/05/30 05:53 KLNS 300553Z AUTO 12004KT 7SM CLR 20/19 A3019 RMK AO2 SLP218 T02000189 10261 20200 58005
KILG - Wilmington, Delaware, USA
Distance from station: ENE 50mi, 81km
Updated: Sat, 30-May-2015 1:51am EDT
Clear
Clear
 Wind from S
Wind: S 8 mph , 13 km/h
Temperature: 70°F , 21°C
Dew Point: 64°F , 18°C
Humidity: 83%
Barometer: 30.20 inHg , 1022.7 hPa
Clouds: Clear
Visibility: 10 miles , 16 km
2015/05/30 05:51 KILG 300551Z AUTO 18007KT 10SM CLR 21/18 A3020 RMK AO2 SLP227 T02060183 10228 20206 58009 TSNO